createdAt,value
2019-03-08T00:01:38.906Z,5.47
2019-03-08T00:04:07.440Z,4.20
2019-03-08T00:06:56.980Z,5.43
2019-03-08T00:09:25.377Z,7.63
2019-03-08T00:11:53.856Z,4.90
2019-03-08T00:14:22.428Z,6.80
2019-03-08T00:16:50.876Z,3.37
2019-03-08T00:19:19.339Z,6.87
2019-03-08T00:21:47.922Z,9.30
2019-03-08T00:24:16.284Z,6.00
2019-03-08T00:26:44.662Z,6.63
2019-03-08T00:29:13.145Z,8.63
2019-03-08T00:31:41.689Z,4.97
2019-03-08T00:34:10.386Z,9.90
2019-03-08T00:36:38.957Z,5.03
2019-03-08T00:39:07.411Z,6.90
2019-03-08T00:41:35.875Z,7.07
2019-03-08T00:44:04.362Z,8.13
2019-03-08T00:46:32.852Z,7.37
2019-03-08T00:49:01.212Z,9.53
2019-03-08T00:51:29.732Z,7.67
2019-03-08T00:53:58.177Z,5.73
2019-03-08T00:56:26.645Z,6.20
2019-03-08T00:58:55.056Z,12.33
2019-03-08T01:01:23.564Z,9.13
2019-03-08T01:03:52.096Z,9.10
2019-03-08T01:06:20.649Z,7.50
2019-03-08T01:08:49.049Z,11.30
2019-03-08T01:11:17.493Z,7.60
2019-03-08T01:13:45.989Z,3.57
2019-03-08T01:16:14.447Z,7.03
2019-03-08T01:18:42.920Z,6.80
2019-03-08T01:21:11.410Z,7.00
2019-03-08T01:23:39.793Z,10.50
2019-03-08T01:26:08.246Z,8.50
2019-03-08T01:28:37.345Z,8.90
2019-03-08T01:31:05.896Z,8.07
2019-03-08T01:33:34.352Z,12.57
2019-03-08T01:36:03.050Z,13.40
2019-03-08T01:38:31.564Z,6.47
2019-03-08T01:40:59.960Z,11.63
2019-03-08T01:43:28.585Z,10.33
2019-03-08T01:45:57.024Z,9.90
2019-03-08T01:48:25.467Z,10.83
2019-03-08T01:50:53.952Z,8.60
2019-03-08T01:53:22.324Z,10.37
2019-03-08T01:55:50.788Z,6.90
2019-03-08T01:58:19.238Z,10.70
2019-03-08T02:00:47.644Z,9.53
2019-03-08T02:03:17.259Z,7.60
2019-03-08T02:05:45.800Z,10.00
2019-03-08T02:08:14.252Z,10.57
2019-03-08T02:10:42.720Z,13.70
2019-03-08T02:13:11.235Z,13.13
2019-03-08T02:15:39.845Z,10.43
2019-03-08T02:18:08.300Z,8.63
2019-03-08T02:20:36.868Z,11.33
2019-03-08T02:23:05.360Z,15.37
2019-03-08T02:25:33.813Z,12.93
2019-03-08T02:28:02.285Z,5.37
2019-03-08T02:30:30.747Z,4.83
2019-03-08T02:32:59.279Z,7.43
2019-03-08T02:35:27.776Z,4.73
2019-03-08T02:38:21.540Z,5.97
2019-03-08T02:40:50.136Z,4.60
2019-03-08T02:43:18.592Z,4.50
2019-03-08T02:45:47.061Z,5.53
2019-03-08T02:48:15.556Z,5.80
2019-03-08T02:50:44.008Z,6.30
2019-03-08T02:53:12.456Z,8.17
2019-03-08T02:55:40.932Z,5.63
2019-03-08T02:58:09.389Z,5.13
2019-03-08T03:00:44.816Z,7.80
2019-03-08T03:03:13.509Z,5.20
2019-03-08T03:05:41.960Z,6.93
2019-03-08T03:08:10.424Z,6.87
2019-03-08T03:10:38.826Z,11.30
2019-03-08T03:13:07.267Z,9.97
2019-03-08T03:15:35.750Z,8.70
2019-03-08T03:18:04.298Z,8.90
2019-03-08T03:20:32.738Z,9.57
2019-03-08T03:23:01.233Z,10.67
2019-03-08T03:25:29.722Z,13.80
2019-03-08T03:27:58.180Z,9.27
2019-03-08T03:30:26.682Z,8.67
2019-03-08T03:32:55.156Z,10.83
2019-03-08T03:35:23.612Z,8.30
2019-03-08T03:37:52.037Z,8.53
2019-03-08T03:40:20.521Z,9.43
2019-03-08T03:42:48.976Z,9.67
2019-03-08T03:45:17.509Z,9.73
2019-03-08T03:47:45.992Z,8.93
2019-03-08T03:50:14.556Z,10.23
2019-03-08T03:52:43.037Z,9.07
2019-03-08T03:55:11.601Z,9.30
2019-03-08T03:57:40.011Z,9.63
2019-03-08T04:00:09.079Z,11.93
2019-03-08T04:02:37.520Z,11.70
2019-03-08T04:05:06.067Z,15.33
2019-03-08T04:07:34.545Z,13.63
2019-03-08T04:10:03.001Z,14.03
2019-03-08T04:12:31.466Z,10.93
2019-03-08T04:14:59.978Z,10.17
2019-03-08T04:17:28.351Z,9.33
2019-03-08T04:19:56.860Z,16.60
2019-03-08T04:22:25.347Z,11.17
2019-03-08T04:24:53.810Z,14.30
2019-03-08T04:27:22.256Z,15.33
2019-03-08T04:29:50.749Z,11.00
2019-03-08T04:32:19.112Z,11.20
2019-03-08T04:34:47.492Z,10.00
2019-03-08T04:37:16.069Z,13.07
2019-03-08T04:39:44.441Z,14.17
2019-03-08T04:42:12.928Z,15.13
2019-03-08T04:44:41.457Z,11.67
2019-03-08T04:47:09.929Z,12.77
2019-03-08T04:49:38.379Z,15.63
2019-03-08T04:52:06.956Z,18.40
2019-03-08T04:54:35.420Z,14.80
2019-03-08T04:57:03.951Z,11.77
2019-03-08T04:59:32.426Z,13.17
2019-03-08T05:02:00.884Z,13.00
2019-03-08T05:04:29.340Z,12.67
2019-03-08T05:06:58.093Z,16.23
2019-03-08T05:09:26.665Z,16.37
2019-03-08T05:11:55.148Z,22.07
2019-03-08T05:14:23.624Z,14.77
2019-03-08T05:16:52.099Z,18.50
2019-03-08T05:19:20.589Z,14.50
2019-03-08T05:21:49.264Z,17.87
2019-03-08T05:24:17.734Z,20.10
2019-03-08T05:26:46.178Z,16.00
2019-03-08T05:29:14.660Z,36.53
2019-03-08T05:31:43.180Z,19.97
2019-03-08T05:34:11.614Z,19.20
2019-03-08T05:36:40.208Z,18.20
2019-03-08T05:39:10.702Z,18.80
2019-03-08T05:41:39.188Z,20.63
2019-03-08T05:44:07.680Z,17.93
2019-03-08T05:46:36.185Z,22.00
2019-03-08T05:49:04.657Z,18.77
2019-03-08T05:51:33.440Z,20.60
2019-03-08T05:54:01.902Z,21.87
2019-03-08T05:56:30.437Z,20.97
2019-03-08T05:58:58.929Z,23.47
2019-03-08T06:01:27.499Z,16.67
2019-03-08T06:03:55.970Z,21.63
2019-03-08T06:06:26.087Z,18.90
2019-03-08T06:08:54.592Z,21.03
2019-03-08T06:11:23.147Z,24.60
2019-03-08T06:13:51.716Z,17.30
2019-03-08T06:16:20.278Z,14.30
2019-03-08T06:18:48.877Z,16.23
2019-03-08T06:21:17.788Z,13.73
2019-03-08T06:23:46.253Z,20.43
2019-03-08T06:26:14.854Z,16.07
2019-03-08T06:28:43.490Z,14.90
2019-03-08T06:31:12.205Z,23.60
2019-03-08T06:33:40.652Z,19.57
2019-03-08T06:36:09.169Z,20.60
2019-03-08T06:38:37.720Z,25.87
2019-03-08T06:41:06.175Z,20.57
2019-03-08T06:43:34.768Z,19.63
2019-03-08T06:46:03.236Z,19.83
2019-03-08T06:48:31.635Z,16.47
2019-03-08T06:51:00.117Z,25.47
2019-03-08T06:53:28.704Z,26.60
2019-03-08T06:55:57.113Z,24.73
2019-03-08T06:58:47.813Z,30.20
2019-03-08T07:01:21.069Z,24.20
2019-03-08T07:03:49.587Z,21.27
2019-03-08T07:06:18.069Z,30.03
2019-03-08T07:08:46.540Z,20.67
2019-03-08T07:11:14.915Z,24.93
2019-03-08T07:13:43.408Z,24.17
2019-03-08T07:16:13.362Z,22.43
2019-03-08T07:18:42.203Z,24.23
2019-03-08T07:21:18.522Z,19.27
2019-03-08T07:24:01.763Z,19.97
2019-03-08T07:27:01.673Z,25.27
2019-03-08T07:29:47.944Z,25.77
2019-03-08T07:32:28.489Z,23.03
2019-03-08T07:35:19.046Z,20.50
2019-03-08T07:38:19.116Z,24.97
2019-03-08T07:41:10.077Z,20.00
2019-03-08T07:44:12.849Z,25.93
2019-03-08T07:46:52.761Z,20.57
2019-03-08T07:49:29.799Z,30.80
2019-03-08T07:52:14.340Z,26.63
2019-03-08T07:55:01.935Z,23.17
2019-03-08T07:57:49.681Z,25.33
2019-03-08T08:00:35.416Z,25.80
2019-03-08T08:03:12.918Z,28.53
2019-03-08T08:06:00.823Z,30.13
2019-03-08T08:08:38.112Z,31.67
2019-03-08T08:14:18.794Z,27.67
2019-03-08T08:17:24.836Z,23.03
2019-03-08T08:20:18.161Z,26.00
2019-03-08T08:23:00.631Z,19.23
2019-03-08T08:25:48.215Z,26.80
2019-03-08T08:28:22.145Z,25.27
2019-03-08T08:31:09.755Z,24.30
2019-03-08T08:33:56.544Z,23.13
2019-03-08T08:36:43.320Z,26.10
2019-03-08T08:39:29.519Z,31.00
2019-03-08T08:42:35.451Z,25.97
2019-03-08T08:45:30.066Z,30.03
2019-03-08T08:48:20.908Z,23.20
2019-03-08T08:51:11.595Z,20.23
2019-03-08T08:54:10.368Z,19.50
2019-03-08T08:57:01.096Z,24.57
2019-03-08T08:59:39.949Z,18.53
2019-03-08T09:02:30.337Z,29.60
2019-03-08T09:05:18.146Z,21.87
2019-03-08T09:07:51.312Z,28.00
2019-03-08T09:10:37.588Z,20.10
2019-03-08T09:13:25.213Z,16.30
2019-03-08T09:16:02.513Z,22.77
2019-03-08T09:18:50.169Z,23.23
2019-03-08T09:21:28.351Z,23.40
2019-03-08T09:24:08.342Z,22.90
2019-03-08T09:27:01.743Z,22.73
2019-03-08T09:29:47.955Z,16.77
2019-03-08T09:32:34.526Z,18.67
2019-03-08T09:35:12.529Z,22.60
2019-03-08T09:38:03.144Z,28.97
2019-03-08T09:40:39.976Z,22.57
2019-03-08T09:43:42.851Z,18.83
2019-03-08T09:46:23.285Z,17.30
2019-03-08T09:49:05.307Z,26.00
2019-03-08T09:51:52.964Z,21.40
2019-03-08T09:54:33.879Z,23.83
2019-03-08T09:57:39.616Z,21.80
2019-03-08T10:00:38.708Z,22.83
2019-03-08T10:03:15.821Z,12.87
2019-03-08T10:05:52.847Z,21.47
2019-03-08T10:08:35.078Z,23.70
2019-03-08T10:11:15.053Z,17.20
2019-03-08T10:14:01.681Z,16.97
2019-03-08T10:16:38.006Z,12.13
2019-03-08T10:19:16.577Z,14.50
2019-03-08T10:21:54.653Z,15.07
2019-03-08T10:25:00.938Z,13.87
2019-03-08T10:27:39.810Z,14.33
2019-03-08T10:30:33.077Z,21.50
2019-03-08T10:33:24.781Z,12.50
2019-03-08T10:36:20.655Z,13.17
2019-03-08T10:39:05.871Z,9.10
2019-03-08T10:41:52.197Z,8.70
2019-03-08T10:44:40.086Z,10.07
2019-03-08T10:47:56.219Z,5.13
2019-03-08T10:50:33.432Z,4.80
2019-03-08T10:53:19.871Z,6.47
2019-03-08T10:56:07.911Z,8.63
2019-03-08T10:59:13.812Z,18.03
2019-03-08T11:02:01.423Z,4.67
2019-03-08T11:04:35.135Z,11.53
2019-03-08T11:07:22.737Z,8.97
2019-03-08T11:10:09.347Z,9.10
2019-03-08T11:12:57.101Z,12.43
2019-03-08T11:15:50.584Z,13.43
2019-03-08T11:18:53.475Z,13.33
2019-03-08T11:22:00.590Z,14.87
2019-03-08T11:24:50.928Z,10.77
2019-03-08T11:27:37.095Z,14.97
2019-03-08T11:30:21.883Z,19.50
2019-03-08T11:33:02.637Z,25.10
2019-03-08T11:35:50.271Z,19.93
2019-03-08T11:38:28.052Z,15.47
2019-03-08T11:41:06.972Z,21.43
2019-03-08T11:43:57.625Z,13.07
2019-03-08T11:46:48.406Z,13.83
2019-03-08T11:49:36.148Z,13.23
2019-03-08T11:52:42.151Z,14.43
2019-03-08T11:55:45.182Z,12.57
2019-03-08T11:58:35.496Z,15.17
2019-03-08T12:01:23.231Z,11.60
2019-03-08T12:04:02.030Z,18.63
2019-03-08T12:06:58.682Z,17.70
2019-03-08T12:09:35.557Z,13.67
2019-03-08T12:12:15.463Z,10.70
2019-03-08T12:15:06.173Z,10.27
2019-03-08T12:17:51.329Z,8.97
2019-03-08T12:20:41.876Z,7.50
2019-03-08T12:23:32.259Z,6.27
2019-03-08T12:26:11.880Z,12.43
2019-03-08T12:28:49.440Z,8.67
2019-03-08T12:31:38.596Z,9.67
2019-03-08T12:34:26.141Z,9.10
2019-03-08T12:37:15.450Z,9.73
2019-03-08T12:40:03.470Z,5.90
2019-03-08T12:42:50.063Z,8.93
2019-03-08T12:45:36.784Z,11.53
2019-03-08T12:48:12.616Z,6.90
2019-03-08T12:50:47.425Z,8.37
2019-03-08T12:53:30.886Z,13.40
2019-03-08T12:56:33.643Z,12.50
2019-03-08T12:59:08.731Z,11.03
2019-03-08T13:02:02.322Z,12.47
2019-03-08T13:04:38.501Z,7.37
2019-03-08T13:07:13.811Z,14.00
2019-03-08T13:09:48.540Z,14.13
2019-03-08T13:12:17.147Z,10.53
2019-03-08T13:14:45.648Z,10.77
2019-03-08T13:17:14.108Z,8.87
2019-03-08T13:19:42.581Z,11.93
2019-03-08T13:22:11.164Z,7.87
2019-03-08T13:24:40.677Z,7.77
2019-03-08T13:27:09.250Z,9.70
2019-03-08T13:29:37.729Z,11.83
2019-03-08T13:32:08.289Z,16.00
2019-03-08T13:34:36.774Z,14.27
2019-03-08T13:37:05.351Z,10.67
2019-03-08T13:39:33.754Z,6.57
2019-03-08T13:42:02.261Z,15.57
2019-03-08T13:44:30.819Z,7.67
2019-03-08T13:46:59.283Z,13.77
2019-03-08T13:49:27.757Z,13.60
2019-03-08T13:51:56.272Z,12.67
2019-03-08T13:54:24.788Z,12.53
2019-03-08T13:56:53.301Z,9.60
2019-03-08T13:59:21.822Z,14.37
2019-03-08T14:01:51.431Z,14.33
2019-03-08T14:04:19.973Z,11.23
2019-03-08T14:06:48.422Z,12.60
2019-03-08T14:09:16.830Z,16.57
2019-03-08T14:11:48.428Z,13.17
2019-03-08T14:14:16.877Z,13.30
2019-03-08T14:16:45.431Z,16.30
2019-03-08T14:19:13.912Z,16.30
2019-03-08T14:21:42.475Z,13.67
2019-03-08T14:24:10.843Z,8.47
2019-03-08T14:26:39.337Z,12.83
2019-03-08T14:29:07.849Z,12.67
2019-03-08T14:31:49.215Z,10.43
2019-03-08T14:34:17.897Z,9.23
2019-03-08T14:36:46.376Z,12.33
2019-03-08T14:39:15.146Z,13.10
2019-03-08T14:41:48.479Z,15.97
2019-03-08T14:44:34.837Z,9.90
2019-03-08T14:47:11.580Z,10.20
2019-03-08T14:49:45.783Z,12.13
2019-03-08T14:52:15.799Z,12.20
2019-03-08T14:54:46.419Z,8.47
2019-03-08T14:57:26.382Z,6.40
2019-03-08T14:59:44.684Z,8.60
2019-03-08T15:02:14.611Z,12.37
2019-03-08T15:04:43.171Z,10.33
2019-03-08T15:07:11.636Z,9.50
2019-03-08T15:09:40.137Z,8.60
2019-03-08T15:12:16.359Z,15.13
2019-03-08T15:14:38.752Z,12.37
2019-03-08T15:17:09.334Z,11.43
2019-03-08T15:19:40.325Z,8.50
2019-03-08T15:22:07.907Z,9.63
2019-03-08T15:24:38.602Z,9.40
2019-03-08T15:27:06.698Z,11.27
2019-03-08T15:29:35.791Z,9.93
2019-03-08T15:32:04.276Z,10.37
2019-03-08T15:34:32.676Z,6.93
2019-03-08T15:37:01.162Z,13.07
2019-03-08T15:39:29.559Z,11.37
2019-03-08T15:41:58.572Z,8.03
2019-03-08T15:44:29.207Z,11.60
2019-03-08T15:46:59.294Z,12.40
2019-03-08T15:49:30.519Z,10.23
2019-03-08T15:51:59.858Z,14.10
2019-03-08T15:54:28.404Z,9.93
2019-03-08T15:56:56.897Z,9.23
2019-03-08T15:59:25.376Z,9.27
2019-03-08T16:01:53.985Z,8.00
2019-03-08T16:04:22.448Z,8.87
2019-03-08T16:07:18.973Z,10.77
2019-03-08T16:09:48.553Z,10.73
2019-03-08T16:12:17.111Z,12.47
2019-03-08T16:14:45.643Z,8.37
2019-03-08T16:17:14.676Z,12.27
2019-03-08T16:19:43.208Z,9.30
2019-03-08T16:22:11.745Z,7.50
2019-03-08T16:24:40.356Z,10.17
2019-03-08T16:27:08.852Z,11.10
2019-03-08T16:29:37.331Z,8.60
2019-03-08T16:32:10.893Z,11.47
2019-03-08T16:34:39.181Z,8.90
2019-03-08T16:37:15.432Z,11.93
2019-03-08T16:40:02.505Z,11.27
2019-03-08T16:42:39.228Z,8.20
2019-03-08T16:45:26.648Z,8.10
2019-03-08T16:48:11.835Z,8.00
2019-03-08T16:50:56.083Z,8.20
2019-03-08T16:53:30.786Z,8.33
2019-03-08T16:56:17.620Z,10.43
2019-03-08T16:59:29.654Z,6.13
2019-03-08T17:02:16.524Z,10.43
2019-03-08T17:05:04.257Z,6.73
2019-03-08T17:07:41.339Z,6.60
2019-03-08T17:10:19.856Z,11.87
2019-03-08T17:13:10.494Z,7.77
2019-03-08T17:15:58.240Z,8.60
2019-03-08T17:18:48.872Z,9.47
2019-03-08T17:21:35.099Z,8.37
2019-03-08T17:24:16.997Z,8.80
2019-03-08T17:26:53.532Z,7.77
2019-03-08T17:29:31.188Z,8.57
2019-03-08T17:32:14.271Z,4.73
2019-03-08T17:35:02.134Z,13.13
2019-03-08T17:37:52.535Z,7.47
2019-03-08T17:40:43.165Z,10.43
2019-03-08T17:43:27.301Z,8.68
2019-03-08T17:46:10.408Z,8.00
2019-03-08T17:49:13.293Z,7.90
2019-03-08T17:51:59.507Z,10.40
2019-03-08T17:54:38.090Z,13.07
2019-03-08T17:57:17.964Z,9.40
2019-03-08T18:00:10.172Z,16.17
2019-03-08T18:02:56.823Z,51.20
2019-03-08T18:05:43.470Z,24.20
2019-03-08T18:08:30.173Z,25.47
2019-03-08T18:11:16.746Z,37.87
2019-03-08T18:13:57.820Z,20.73
2019-03-08T18:16:34.201Z,14.10
2019-03-08T18:19:20.756Z,14.23
2019-03-08T18:21:54.906Z,13.30
2019-03-08T18:24:35.888Z,19.60
2019-03-08T18:27:12.936Z,20.03
2019-03-08T18:30:03.790Z,13.37
2019-03-08T18:32:48.108Z,13.33
2019-03-08T18:35:24.091Z,12.87
2019-03-08T18:37:59.076Z,18.13
2019-03-08T18:40:41.297Z,11.23
2019-03-08T18:43:31.998Z,10.47
2019-03-08T18:46:13.344Z,8.97
2019-03-08T18:48:55.259Z,8.57
2019-03-08T18:51:42.994Z,10.80
2019-03-08T18:54:28.333Z,11.50
2019-03-08T18:57:18.661Z,8.00
2019-03-08T19:00:07.308Z,9.57
2019-03-08T19:02:53.690Z,9.03
2019-03-08T19:05:48.313Z,7.12
2019-03-08T19:08:41.883Z,6.17
2019-03-08T19:11:21.857Z,7.03
2019-03-08T19:14:12.809Z,7.57
2019-03-08T19:17:02.939Z,6.53
2019-03-08T19:19:51.532Z,6.03
2019-03-08T19:22:40.154Z,6.63
2019-03-08T19:25:46.047Z,8.57
2019-03-08T19:28:33.631Z,6.62
2019-03-08T19:31:26.904Z,7.03
2019-03-08T19:34:26.591Z,6.27
2019-03-08T19:37:17.060Z,10.13
2019-03-08T19:40:14.093Z,6.27
2019-03-08T19:43:09.145Z,6.77
2019-03-08T19:45:55.156Z,7.50
2019-03-08T19:48:48.536Z,6.10
2019-03-08T19:51:36.101Z,8.73
2019-03-08T19:54:26.611Z,10.97
2019-03-08T19:57:13.243Z,8.30
2019-03-08T19:59:59.780Z,8.53
2019-03-08T20:02:53.483Z,4.30
2019-03-08T20:05:39.675Z,7.47
2019-03-08T20:08:26.359Z,7.33
2019-03-08T20:11:12.900Z,6.63
2019-03-08T20:14:10.352Z,8.13
2019-03-08T20:17:06.989Z,9.05
2019-03-08T20:19:45.313Z,9.60
2019-03-08T20:22:35.866Z,7.30
2019-03-08T20:25:15.863Z,13.90
2019-03-08T20:27:53.028Z,17.10
2019-03-08T20:30:39.345Z,10.10
2019-03-08T20:33:19.251Z,7.37
2019-03-08T20:36:03.695Z,8.27
2019-03-08T20:39:06.881Z,7.80
2019-03-08T20:41:44.667Z,9.00
2019-03-08T20:44:20.550Z,14.70
2019-03-08T20:46:52.452Z,7.77
2019-03-08T20:49:20.857Z,9.50
2019-03-08T20:51:51.587Z,9.53
2019-03-08T20:54:22.206Z,9.90
2019-03-08T20:56:50.399Z,10.90
2019-03-08T20:59:26.455Z,9.43
2019-03-08T21:01:55.331Z,9.27
2019-03-08T21:04:24.250Z,15.37
2019-03-08T21:06:58.503Z,12.23
2019-03-08T21:09:26.873Z,10.33
2019-03-08T21:11:55.231Z,9.67
2019-03-08T21:14:24.691Z,8.27
2019-03-08T21:16:53.278Z,6.43
2019-03-08T21:19:21.706Z,11.73
2019-03-08T21:21:50.433Z,9.07
2019-03-08T21:24:18.921Z,12.87
2019-03-08T21:26:47.307Z,16.47
2019-03-08T21:29:16.002Z,10.20
2019-03-08T21:31:44.487Z,17.33
2019-03-08T21:34:13.036Z,14.03
2019-03-08T21:36:41.723Z,12.93
2019-03-08T21:39:14.670Z,12.57
2019-03-08T21:41:43.176Z,14.70
2019-03-08T21:44:11.723Z,42.87
2019-03-08T21:46:40.173Z,12.17
2019-03-08T21:49:08.597Z,18.33
2019-03-08T21:51:37.049Z,16.80
2019-03-08T21:54:05.496Z,20.07
2019-03-08T21:56:33.824Z,16.13
2019-03-08T21:59:02.260Z,14.97
2019-03-08T22:01:31.073Z,9.67
2019-03-08T22:04:11.279Z,9.73
2019-03-08T22:06:39.772Z,13.20
2019-03-08T22:09:22.341Z,13.17
2019-03-08T22:11:50.669Z,11.80
2019-03-08T22:14:19.118Z,10.00
2019-03-08T22:16:47.519Z,10.67
2019-03-08T22:19:16.021Z,10.10
2019-03-08T22:21:44.495Z,7.37
2019-03-08T22:24:13.854Z,10.53
2019-03-08T22:26:42.308Z,8.33
2019-03-08T22:29:10.787Z,7.17
2019-03-08T22:31:39.264Z,18.17
2019-03-08T22:34:07.615Z,13.10
2019-03-08T22:36:36.071Z,12.53
2019-03-08T22:39:05.703Z,8.90
2019-03-08T22:41:34.128Z,11.57
2019-03-08T22:44:02.472Z,9.73
2019-03-08T22:46:31.067Z,6.73
2019-03-08T22:48:59.403Z,11.37
2019-03-08T22:51:28.295Z,11.40
2019-03-08T22:53:56.674Z,11.63
2019-03-08T22:56:25.147Z,11.30
2019-03-08T22:58:53.571Z,11.03
2019-03-08T23:01:22.208Z,7.70
2019-03-08T23:03:50.631Z,13.07
2019-03-08T23:06:19.095Z,14.23
2019-03-08T23:08:47.488Z,12.10
2019-03-08T23:11:16.010Z,13.23
2019-03-08T23:13:44.439Z,9.70
2019-03-08T23:16:13.006Z,10.50
2019-03-08T23:18:41.662Z,10.47
2019-03-08T23:21:10.083Z,12.63
2019-03-08T23:23:38.455Z,10.13
2019-03-08T23:26:06.875Z,11.50
2019-03-08T23:28:40.106Z,9.43
2019-03-08T23:31:15.341Z,11.77
2019-03-08T23:33:43.688Z,14.90
2019-03-08T23:36:12.071Z,8.80
2019-03-08T23:38:40.526Z,11.13
2019-03-08T23:41:08.880Z,12.80
2019-03-08T23:43:37.563Z,9.23
2019-03-08T23:46:05.922Z,7.63
2019-03-08T23:48:34.259Z,11.27
2019-03-08T23:51:03.149Z,11.97
2019-03-08T23:53:31.573Z,9.33
2019-03-08T23:55:59.911Z,10.87
2019-03-08T23:58:28.331Z,9.57
